Time;durP1;ratioP1;P1;durP2;ratioP2;P2;SDS_P1;SDS_P2;PMS_P1;PMS_P2;Temp;Humidity;BMP_temperature;BMP_pressure;BME280_temperature;BME280_humidity;BME280_pressure;Samples;Min_cycle;Max_cycle;Signal;HPM_P1;HPM_P2
2023/03/04 00:01:25;;;;;;;17.23;11.23;;;7.80;99.90;;;;;;5067350;28;20261;-33
2023/03/04 00:03:54;;;;;;;21.83;11.47;;;7.80;99.90;;;;;;5065737;28;20441;-32
2023/03/04 00:06:24;;;;;;;19.40;10.57;;;7.80;99.90;;;;;;5067480;28;20222;-33
2023/03/04 00:08:52;;;;;;;16.77;9.53;;;7.70;99.90;;;;;;5065660;28;20282;-33
2023/03/04 00:11:21;;;;;;;18.17;10.10;;;7.70;99.90;;;;;;5065329;28;20204;-33
2023/03/04 00:13:48;;;;;;;13.70;9.20;;;7.70;99.90;;;;;;5066650;28;20234;-33
2023/03/04 00:16:16;;;;;;;14.43;8.87;;;7.70;99.90;;;;;;5066613;28;20241;-33
2023/03/04 00:18:53;;;;;;;14.97;9.33;;;7.70;99.90;;;;;;5065299;28;20685;-33
2023/03/04 00:21:25;;;;;;;11.60;8.47;;;7.70;99.90;;;;;;5066675;28;20219;-33
2023/03/04 00:23:52;;;;;;;15.30;8.70;;;7.80;99.90;;;;;;5065606;28;20204;-33
2023/03/04 00:26:22;;;;;;;14.00;8.83;;;7.80;99.90;;;;;;5065068;28;20195;-32
2023/03/04 00:28:51;;;;;;;17.83;8.43;;;7.70;99.90;;;;;;5066242;28;20243;-33
2023/03/04 00:31:18;;;;;;;19.40;8.60;;;7.70;99.90;;;;;;5066648;28;20337;-33
2023/03/04 00:33:53;;;;;;;16.53;8.40;;;7.70;99.90;;;;;;5065947;28;20322;-32
2023/03/04 00:36:23;;;;;;;16.60;8.77;;;7.70;99.90;;;;;;5066867;28;20467;-33
2023/03/04 00:38:53;;;;;;;17.90;8.70;;;7.70;99.90;;;;;;5054915;28;20215;-33
2023/03/04 00:41:25;;;;;;;14.73;8.10;;;7.70;99.90;;;;;;5066585;28;20221;-33
2023/03/04 00:43:57;;;;;;;12.27;6.80;;;7.70;99.90;;;;;;5066780;28;20195;-32
2023/03/04 00:46:24;;;;;;;22.27;7.80;;;7.80;99.90;;;;;;5047927;28;20693;-33
2023/03/04 00:48:56;;;;;;;13.10;7.33;;;7.70;99.90;;;;;;5048789;28;20584;-33
2023/03/04 00:51:26;;;;;;;15.03;7.93;;;7.70;99.90;;;;;;5065099;28;20231;-33
2023/03/04 00:53:53;;;;;;;15.77;8.17;;;7.70;99.90;;;;;;5063884;28;20738;-32
2023/03/04 00:56:24;;;;;;;17.53;7.27;;;7.70;99.90;;;;;;5032977;28;20609;-33
2023/03/04 00:58:54;;;;;;;16.80;8.37;;;7.70;99.90;;;;;;5064106;28;20199;-33
2023/03/04 01:01:23;;;;;;;15.73;7.57;;;7.70;99.90;;;;;;5048003;28;20277;-33
2023/03/04 01:03:50;;;;;;;16.60;7.53;;;7.60;99.90;;;;;;5064429;28;20199;-33
2023/03/04 01:06:20;;;;;;;16.43;7.97;;;7.60;99.90;;;;;;5064969;28;20302;-33
2023/03/04 01:08:49;;;;;;;16.40;7.27;;;7.60;99.90;;;;;;5063986;28;20195;-33
2023/03/04 01:11:18;;;;;;;17.43;8.63;;;7.60;99.90;;;;;;5048046;28;20631;-33
2023/03/04 01:13:50;;;;;;;21.87;8.77;;;7.60;99.90;;;;;;5064319;28;20252;-32
2023/03/04 01:16:18;;;;;;;15.23;7.60;;;7.60;99.90;;;;;;5064663;28;20203;-32
2023/03/04 01:18:46;;;;;;;14.70;7.20;;;7.60;99.90;;;;;;5063810;28;20191;-32
2023/03/04 01:21:16;;;;;;;13.07;7.30;;;7.60;99.90;;;;;;5064269;28;20585;-33
2023/03/04 01:23:43;;;;;;;15.20;7.50;;;7.70;99.90;;;;;;5063439;28;20192;-33
2023/03/04 01:26:10;;;;;;;16.43;7.83;;;7.70;99.90;;;;;;5047705;28;20291;-32
2023/03/04 01:28:40;;;;;;;17.23;7.90;;;7.70;99.90;;;;;;5063792;28;20291;-33
2023/03/04 01:31:07;;;;;;;17.57;7.83;;;7.80;99.90;;;;;;5065267;28;20304;-33
2023/03/04 01:33:34;;;;;;;14.97;8.20;;;7.80;99.90;;;;;;5054153;28;20199;-33
2023/03/04 01:36:04;;;;;;;13.60;7.63;;;7.80;99.90;;;;;;5064330;28;20572;-33
2023/03/04 01:38:33;;;;;;;15.30;7.23;;;7.80;99.90;;;;;;5064897;28;20207;-32
2023/03/04 01:41:03;;;;;;;15.47;7.37;;;7.80;99.90;;;;;;5065628;28;20670;-33
2023/03/04 01:43:31;;;;;;;16.50;7.33;;;7.90;99.90;;;;;;5063682;28;20199;-32
2023/03/04 01:45:58;;;;;;;18.20;6.70;;;7.80;99.90;;;;;;5064363;28;20195;-33
2023/03/04 01:48:29;;;;;;;14.67;7.33;;;7.90;99.90;;;;;;5047415;28;20219;-32
2023/03/04 01:50:58;;;;;;;16.00;6.97;;;7.90;99.90;;;;;;5063511;28;20199;-33
2023/03/04 01:53:27;;;;;;;12.60;6.57;;;7.90;99.90;;;;;;5062580;28;20245;-33
2023/03/04 01:55:59;;;;;;;14.90;6.93;;;7.80;99.90;;;;;;5062827;28;20262;-33
2023/03/04 01:58:31;;;;;;;13.00;6.30;;;7.90;99.90;;;;;;5054908;28;20713;-33
2023/03/04 02:01:00;;;;;;;14.37;7.07;;;7.90;99.90;;;;;;5044776;28;20271;-33
2023/03/04 02:03:30;;;;;;;13.67;6.67;;;7.90;99.90;;;;;;5044263;28;20216;-33
2023/03/04 02:06:02;;;;;;;15.17;7.13;;;7.90;99.90;;;;;;5044567;28;20227;-33
2023/03/04 02:08:35;;;;;;;14.33;6.77;;;7.90;99.90;;;;;;5029547;28;20228;-33
2023/03/04 02:11:03;;;;;;;13.97;6.20;;;7.90;99.90;;;;;;5044325;28;20316;-33
2023/03/04 02:13:34;;;;;;;14.40;6.20;;;7.90;99.90;;;;;;5042399;28;20220;-33
2023/03/04 02:16:04;;;;;;;12.63;6.17;;;7.90;99.90;;;;;;5044297;28;20231;-33
2023/03/04 02:18:33;;;;;;;13.10;5.80;;;8.00;99.90;;;;;;5044249;28;20615;-33
2023/03/04 02:21:04;;;;;;;12.63;6.07;;;8.00;99.90;;;;;;5044410;28;20216;-33
2023/03/04 02:23:45;;;;;;;14.93;5.37;;;7.90;99.90;;;;;;5043192;28;20250;-33
2023/03/04 02:26:26;;;;;;;11.00;5.10;;;7.90;99.90;;;;;;5043151;28;20645;-33
2023/03/04 02:29:00;;;;;;;12.50;5.40;;;7.90;99.90;;;;;;5058117;28;20226;-33
2023/03/04 02:31:34;;;;;;;13.80;5.03;;;7.90;99.90;;;;;;5062917;28;20238;-33
2023/03/04 02:34:19;;;;;;;11.43;4.87;;;7.90;99.90;;;;;;5063432;28;20200;-33
2023/03/04 02:36:48;;;;;;;15.97;5.80;;;7.90;99.90;;;;;;5064464;28;20252;-32
2023/03/04 02:39:31;;;;;;;10.87;4.90;;;7.90;99.90;;;;;;5045881;28;20253;-33
2023/03/04 02:41:59;;;;;;;11.20;5.10;;;7.90;99.90;;;;;;5064551;28;20307;-32
2023/03/04 02:44:34;;;;;;;15.23;5.50;;;8.00;99.90;;;;;;5062609;28;20221;-33
2023/03/04 02:47:03;;;;;;;16.37;5.70;;;7.90;99.90;;;;;;5047528;28;20248;-33
2023/03/04 02:49:32;;;;;;;16.63;5.47;;;7.90;99.90;;;;;;5064026;28;20554;-33
2023/03/04 02:52:07;;;;;;;17.50;5.60;;;7.90;99.90;;;;;;5063136;28;20314;-32
2023/03/04 02:54:37;;;;;;;12.53;5.03;;;7.90;99.90;;;;;;5063560;28;20607;-33
2023/03/04 02:57:07;;;;;;;18.57;5.13;;;7.90;99.90;;;;;;5064955;28;20302;-33
2023/03/04 02:59:35;;;;;;;21.10;5.50;;;7.80;99.90;;;;;;5063165;28;20422;-33
2023/03/04 03:02:03;;;;;;;14.50;5.20;;;7.80;99.90;;;;;;5063302;28;20206;-33
2023/03/04 03:04:33;;;;;;;12.63;4.60;;;7.90;99.90;;;;;;5063125;28;20268;-33
2023/03/04 03:07:03;;;;;;;15.40;4.70;;;7.90;99.90;;;;;;5064656;28;20308;-33
2023/03/04 03:09:34;;;;;;;16.60;5.27;;;7.90;99.90;;;;;;5064687;28;20215;-33
2023/03/04 03:12:04;;;;;;;10.65;4.70;;;7.90;99.90;;;;;;5049192;28;20828;-33
2023/03/04 03:14:36;;;;;;;12.20;4.80;;;8.10;99.90;;;;;;5066258;28;20303;-33
2023/03/04 03:17:06;;;;;;;14.00;5.10;;;8.10;99.90;;;;;;5068073;28;20269;-33
2023/03/04 03:19:35;;;;;;;14.57;4.80;;;8.10;99.90;;;;;;5066932;28;20252;-33
2023/03/04 03:22:05;;;;;;;13.40;5.30;;;8.00;99.90;;;;;;5058539;28;20203;-33
2023/03/04 03:24:32;;;;;;;13.70;4.60;;;8.10;99.90;;;;;;5065389;28;20266;-33
2023/03/04 03:27:04;;;;;;;17.90;5.03;;;8.00;99.90;;;;;;5066750;28;20200;-33
2023/03/04 03:29:33;;;;;;;15.37;5.20;;;8.00;99.90;;;;;;5067565;28;20191;-33
2023/03/04 03:32:00;;;;;;;14.40;5.63;;;8.00;99.90;;;;;;5066361;28;20274;-33
2023/03/04 03:34:28;;;;;;;12.97;5.57;;;8.00;99.90;;;;;;5067274;28;20231;-33
2023/03/04 03:36:55;;;;;;;19.83;5.87;;;8.00;99.90;;;;;;5066269;28;20302;-33
2023/03/04 03:39:24;;;;;;;13.00;5.37;;;8.00;99.90;;;;;;5049116;28;20196;-33
2023/03/04 03:41:56;;;;;;;13.97;5.60;;;8.00;99.90;;;;;;5066333;28;20561;-33
2023/03/04 03:44:26;;;;;;;15.87;5.50;;;8.00;99.90;;;;;;5065813;28;20627;-32
2023/03/04 03:46:55;;;;;;;17.10;5.33;;;7.90;99.90;;;;;;5067533;28;20654;-32
2023/03/04 03:49:25;;;;;;;12.90;5.40;;;7.90;99.90;;;;;;5066966;28;20868;-33
2023/03/04 03:51:54;;;;;;;18.17;5.90;;;7.90;99.90;;;;;;5049783;28;20200;-33
2023/03/04 03:54:22;;;;;;;12.13;5.30;;;7.90;99.90;;;;;;5064498;28;20231;-33
2023/03/04 03:56:49;;;;;;;14.57;5.97;;;7.90;99.90;;;;;;5067272;28;20425;-33
2023/03/04 03:59:16;;;;;;;19.60;5.73;;;7.80;99.90;;;;;;5048849;28;20269;-33
2023/03/04 04:01:43;;;;;;;18.73;6.10;;;7.90;99.90;;;;;;5065396;28;20346;-33
2023/03/04 04:04:11;;;;;;;12.97;5.10;;;7.80;99.90;;;;;;5066808;28;20195;-33
2023/03/04 04:06:42;;;;;;;12.87;5.70;;;7.90;99.90;;;;;;5065542;28;20211;-33
2023/03/04 04:09:11;;;;;;;16.93;5.50;;;7.90;99.90;;;;;;5066134;28;20199;-33
2023/03/04 04:11:39;;;;;;;10.47;5.03;;;7.90;99.90;;;;;;5067080;28;20286;-33
2023/03/04 04:14:14;;;;;;;15.23;5.57;;;7.90;99.90;;;;;;5066855;28;20690;-33
2023/03/04 04:16:44;;;;;;;18.63;5.63;;;7.90;99.90;;;;;;5057156;28;20219;-33
2023/03/04 04:19:17;;;;;;;16.50;5.40;;;7.80;99.90;;;;;;5066682;28;20219;-33
2023/03/04 04:21:44;;;;;;;15.93;6.00;;;7.90;99.90;;;;;;5065863;28;20230;-33
2023/03/04 04:24:12;;;;;;;12.70;5.27;;;7.90;99.90;;;;;;5065896;28;20282;-33
2023/03/04 04:26:43;;;;;;;12.87;5.47;;;7.80;99.90;;;;;;5066867;28;20212;-33
2023/03/04 04:29:14;;;;;;;12.73;5.10;;;7.90;99.90;;;;;;5066255;28;20206;-33
2023/03/04 04:31:43;;;;;;;13.37;5.10;;;7.90;99.90;;;;;;5065458;28;20682;-33
2023/03/04 04:34:13;;;;;;;13.40;5.90;;;7.90;99.90;;;;;;5066645;28;20217;-33
2023/03/04 04:36:42;;;;;;;12.97;4.80;;;7.80;99.90;;;;;;5066301;28;20230;-33
2023/03/04 04:39:10;;;;;;;15.43;5.37;;;7.90;99.90;;;;;;5064051;28;20201;-33
2023/03/04 04:41:39;;;;;;;16.93;5.67;;;7.80;99.90;;;;;;5066137;28;20226;-32
2023/03/04 04:44:10;;;;;;;13.93;4.23;;;7.80;99.90;;;;;;5066013;28;20513;-33
2023/03/04 04:46:43;;;;;;;11.87;4.10;;;7.90;99.90;;;;;;5066805;28;20206;-33
2023/03/04 04:49:13;;;;;;;12.43;4.10;;;7.80;99.90;;;;;;5066060;28;20637;-33
2023/03/04 04:51:40;;;;;;;15.73;4.63;;;7.80;99.90;;;;;;5064599;28;20216;-33
2023/03/04 04:54:09;;;;;;;12.73;4.10;;;7.80;99.90;;;;;;5065333;28;20239;-33
2023/03/04 04:56:36;;;;;;;12.20;4.77;;;7.80;99.90;;;;;;5066120;28;20375;-33
2023/03/04 04:59:04;;;;;;;11.40;4.00;;;7.80;99.90;;;;;;5064317;28;20198;-33
2023/03/04 05:01:34;;;;;;;14.27;4.27;;;7.80;99.90;;;;;;5066264;28;20203;-33
2023/03/04 05:04:01;;;;;;;13.03;4.03;;;7.80;99.90;;;;;;5064735;28;20196;-33
2023/03/04 05:06:28;;;;;;;17.50;4.10;;;7.70;99.90;;;;;;5065941;28;20303;-33
2023/03/04 05:08:56;;;;;;;18.17;4.67;;;7.60;99.90;;;;;;5063546;28;20294;-33
2023/03/04 05:11:23;;;;;;;15.47;4.70;;;7.60;99.90;;;;;;5057261;28;20220;-33
2023/03/04 05:13:50;;;;;;;9.30;3.73;;;7.60;99.90;;;;;;5065614;28;20212;-33
2023/03/04 05:16:22;;;;;;;12.40;4.20;;;7.60;99.90;;;;;;5066256;28;20224;-33
2023/03/04 05:18:51;;;;;;;10.53;4.17;;;7.60;99.90;;;;;;5064604;28;20212;-34
2023/03/04 05:21:21;;;;;;;14.57;4.73;;;7.60;99.90;;;;;;5065736;28;20286;-33
2023/03/04 05:23:48;;;;;;;12.90;4.20;;;7.60;99.90;;;;;;5065381;28;20558;-33
2023/03/04 05:26:19;;;;;;;10.30;3.80;;;7.60;99.90;;;;;;5064640;28;20506;-33
2023/03/04 05:28:49;;;;;;;12.17;4.20;;;7.60;99.90;;;;;;5064088;28;20230;-34
2023/03/04 05:31:18;;;;;;;12.90;4.23;;;7.60;99.90;;;;;;5065368;28;20211;-33
2023/03/04 05:33:48;;;;;;;12.10;3.67;;;7.70;99.90;;;;;;5065220;28;20219;-32
2023/03/04 05:36:18;;;;;;;7.73;3.70;;;7.70;99.90;;;;;;5065441;28;20326;-33
2023/03/04 05:38:47;;;;;;;8.80;3.67;;;7.70;99.90;;;;;;5064534;28;20195;-33
2023/03/04 05:41:17;;;;;;;10.47;4.20;;;7.80;99.90;;;;;;5065937;28;20316;-33
2023/03/04 05:43:49;;;;;;;12.13;4.10;;;7.80;99.90;;;;;;5064890;28;20291;-33
2023/03/04 05:46:24;;;;;;;10.70;3.87;;;7.80;99.90;;;;;;5065177;28;20204;-33
2023/03/04 05:48:54;;;;;;;10.03;3.63;;;7.80;99.90;;;;;;5063963;28;20260;-33
2023/03/04 05:51:24;;;;;;;13.07;4.20;;;7.80;99.90;;;;;;5065592;28;20306;-33
2023/03/04 05:53:55;;;;;;;14.13;4.13;;;7.80;99.90;;;;;;5062695;28;20227;-33
2023/03/04 05:56:23;;;;;;;10.27;4.43;;;7.80;99.90;;;;;;5063772;28;20320;-33
2023/03/04 05:58:58;;;;;;;12.90;4.70;;;7.90;99.90;;;;;;5050619;28;20244;-34
2023/03/04 06:01:26;;;;;;;9.60;4.47;;;7.90;99.90;;;;;;5042467;28;20262;-33
2023/03/04 06:03:53;;;;;;;15.93;5.00;;;7.90;99.90;;;;;;5044850;28;20301;-34
2023/03/04 06:06:25;;;;;;;15.30;4.77;;;7.90;99.90;;;;;;5041751;28;20239;-33
2023/03/04 06:08:52;;;;;;;17.53;5.43;;;7.80;99.90;;;;;;5045230;28;20604;-33
2023/03/04 06:11:19;;;;;;;11.17;4.67;;;7.90;99.90;;;;;;5045382;28;20714;-33
2023/03/04 06:13:48;;;;;;;13.40;5.17;;;7.90;99.90;;;;;;5043474;28;20210;-33
2023/03/04 06:16:18;;;;;;;19.10;6.00;;;7.90;99.90;;;;;;5036434;28;20305;-33
2023/03/04 06:18:45;;;;;;;13.43;5.47;;;7.90;99.90;;;;;;5036618;28;20200;-33
2023/03/04 06:21:12;;;;;;;11.93;5.23;;;7.90;99.90;;;;;;5044660;28;20211;-33
2023/03/04 06:23:40;;;;;;;11.77;4.77;;;7.90;99.90;;;;;;5041560;28;20295;-33
2023/03/04 06:26:14;;;;;;;18.63;5.93;;;7.90;99.90;;;;;;5044035;28;20212;-33
2023/03/04 06:28:42;;;;;;;10.00;4.53;;;7.90;99.90;;;;;;5044575;28;20243;-33
2023/03/04 06:31:12;;;;;;;12.07;5.17;;;7.90;99.90;;;;;;5059041;28;20632;-33
2023/03/04 06:33:46;;;;;;;9.97;4.97;;;7.90;99.90;;;;;;5044133;28;20207;-33
2023/03/04 06:36:16;;;;;;;12.23;5.30;;;8.00;99.90;;;;;;5042945;28;20671;-33
2023/03/04 06:38:43;;;;;;;11.10;5.23;;;7.90;99.90;;;;;;5043718;28;20228;-33
2023/03/04 06:41:13;;;;;;;13.17;5.53;;;7.90;99.90;;;;;;5050451;28;20218;-33
2023/03/04 06:43:40;;;;;;;21.50;6.57;;;7.90;99.90;;;;;;5045707;28;20212;-33
2023/03/04 06:46:10;;;;;;;9.33;4.87;;;8.00;99.90;;;;;;5048704;28;20196;-33
2023/03/04 06:48:41;;;;;;;13.77;6.63;;;8.00;99.90;;;;;;5042986;28;20202;-34
2023/03/04 06:51:11;;;;;;;11.03;6.27;;;8.00;99.90;;;;;;5048345;28;20560;-33
2023/03/04 06:53:39;;;;;;;13.80;5.93;;;8.00;99.90;;;;;;5044756;28;20305;-32
2023/03/04 06:56:16;;;;;;;14.67;5.93;;;8.00;99.90;;;;;;5047132;28;20319;-33
2023/03/04 06:58:46;;;;;;;15.60;6.17;;;8.00;99.90;;;;;;5046508;28;20354;-34
2023/03/04 07:01:20;;;;;;;14.93;6.10;;;8.00;99.90;;;;;;5058529;28;20762;-33
2023/03/04 07:03:54;;;;;;;15.40;6.50;;;8.00;99.90;;;;;;5047685;28;20203;-33
2023/03/04 07:06:24;;;;;;;24.90;8.00;;;8.00;99.90;;;;;;5062930;28;20579;-33
2023/03/04 07:08:51;;;;;;;19.03;6.73;;;8.10;99.90;;;;;;5045386;28;20303;-33
2023/03/04 07:11:22;;;;;;;13.83;6.23;;;8.00;99.90;;;;;;5046511;28;20212;-34
2023/03/04 07:13:51;;;;;;;10.50;5.30;;;8.10;99.90;;;;;;5047193;28;20204;-34
2023/03/04 07:16:23;;;;;;;12.57;5.57;;;8.10;99.90;;;;;;5044590;28;20406;-33
2023/03/04 07:18:51;;;;;;;12.50;5.07;;;8.10;99.90;;;;;;5047047;28;20208;-33
2023/03/04 07:21:20;;;;;;;11.57;4.87;;;8.10;99.90;;;;;;5046372;28;20262;-33
2023/03/04 07:23:50;;;;;;;11.17;5.33;;;8.10;99.90;;;;;;5046517;28;20207;-33
2023/03/04 07:26:19;;;;;;;13.53;6.20;;;8.10;99.90;;;;;;5044565;28;20223;-33
2023/03/04 07:28:47;;;;;;;10.70;5.17;;;8.20;99.90;;;;;;5037419;28;20262;-33
2023/03/04 07:31:28;;;;;;;7.93;4.63;;;8.20;99.90;;;;;;5045561;28;20308;-32
2023/03/04 07:34:01;;;;;;;12.27;5.20;;;8.20;99.90;;;;;;5049242;28;20196;-33
2023/03/04 07:36:32;;;;;;;7.27;4.60;;;8.20;99.90;;;;;;5046158;28;20335;-33
2023/03/04 07:38:59;;;;;;;9.80;4.23;;;8.20;99.90;;;;;;5056253;28;20191;-33
2023/03/04 07:41:35;;;;;;;15.00;4.07;;;8.20;99.90;;;;;;5044163;28;20205;-33
2023/03/04 07:44:09;;;;;;;13.90;4.50;;;8.20;99.90;;;;;;5051316;28;20290;-33
2023/03/04 07:46:41;;;;;;;12.63;4.60;;;8.20;99.90;;;;;;5045445;28;20215;-33
2023/03/04 07:49:12;;;;;;;10.03;3.57;;;8.20;99.90;;;;;;5046957;28;20247;-33
2023/03/04 07:51:42;;;;;;;9.87;3.37;;;8.30;99.90;;;;;;5043330;28;20574;-33
2023/03/04 07:54:12;;;;;;;9.27;3.83;;;8.30;99.90;;;;;;5045433;28;20232;-32
2023/03/04 07:56:42;;;;;;;10.47;3.73;;;8.30;99.90;;;;;;5045924;28;20331;-33
2023/03/04 07:59:11;;;;;;;8.33;3.80;;;8.30;99.90;;;;;;5045919;28;20211;-32
2023/03/04 08:01:39;;;;;;;9.97;3.50;;;8.30;99.90;;;;;;5045973;28;20730;-33
2023/03/04 08:04:08;;;;;;;9.43;3.60;;;8.30;99.90;;;;;;5043880;28;20678;-33
2023/03/04 08:06:40;;;;;;;10.63;3.87;;;8.30;99.90;;;;;;5028487;28;20224;-33
2023/03/04 08:09:12;;;;;;;9.77;3.40;;;8.40;99.90;;;;;;5039717;28;20807;-32
2023/03/04 08:11:44;;;;;;;11.83;4.20;;;8.60;99.90;;;;;;5037851;28;20571;-33
2023/03/04 08:14:18;;;;;;;10.83;3.33;;;8.60;99.90;;;;;;5046477;28;20679;-33
2023/03/04 08:16:48;;;;;;;8.40;3.50;;;8.60;99.90;;;;;;5046689;28;20567;-32
2023/03/04 08:19:17;;;;;;;6.60;2.80;;;8.60;99.90;;;;;;5045852;28;20239;-33
2023/03/04 08:21:49;;;;;;;11.83;2.80;;;8.60;99.90;;;;;;5027646;28;20291;-33
2023/03/04 08:24:21;;;;;;;12.17;2.97;;;8.60;99.90;;;;;;5046073;28;20307;-33
2023/03/04 08:26:51;;;;;;;8.52;3.08;;;8.70;99.90;;;;;;5049878;28;20927;-32
2023/03/04 08:29:21;;;;;;;7.35;2.95;;;8.80;99.90;;;;;;5048403;28;20914;-33
2023/03/04 08:31:53;;;;;;;9.30;2.87;;;9.10;99.90;;;;;;5043277;28;20217;-32
2023/03/04 08:34:25;;;;;;;7.27;2.73;;;9.00;99.90;;;;;;5044852;28;20226;-33
2023/03/04 08:36:53;;;;;;;12.97;2.90;;;9.00;99.90;;;;;;5044059;28;20228;-32
2023/03/04 08:39:20;;;;;;;9.43;2.27;;;8.80;99.90;;;;;;5057981;28;20210;-32
2023/03/04 08:41:48;;;;;;;5.57;2.57;;;8.70;99.90;;;;;;5052477;28;20502;-33
2023/03/04 08:44:15;;;;;;;5.20;2.13;;;8.70;99.90;;;;;;5043236;28;20671;-33
2023/03/04 08:46:43;;;;;;;8.17;2.17;;;8.60;99.90;;;;;;5038608;28;20813;-33
2023/03/04 08:49:13;;;;;;;8.80;2.40;;;8.60;99.90;;;;;;5061214;28;20278;-32
2023/03/04 08:51:44;;;;;;;7.20;2.10;;;8.50;99.90;;;;;;5045544;28;20204;-33
2023/03/04 08:54:13;;;;;;;8.53;2.40;;;8.50;99.90;;;;;;5041985;28;20350;-33
2023/03/04 08:56:41;;;;;;;8.17;2.10;;;8.50;99.90;;;;;;5039691;28;20231;-33
2023/03/04 08:59:11;;;;;;;7.33;2.40;;;8.40;99.90;;;;;;5040865;28;20778;-33
2023/03/04 09:01:38;;;;;;;8.77;2.17;;;8.40;99.90;;;;;;5046123;28;20232;-33
2023/03/04 09:04:11;;;;;;;6.97;2.20;;;8.50;99.90;;;;;;5045240;28;20274;-32
2023/03/04 09:06:43;;;;;;;6.53;2.20;;;8.50;99.90;;;;;;5044006;28;20263;-33
2023/03/04 09:09:10;;;;;;;6.57;2.47;;;8.50;99.90;;;;;;5050092;28;20538;-32
2023/03/04 09:11:37;;;;;;;5.73;1.97;;;8.60;99.90;;;;;;5059172;28;20200;-32
2023/03/04 09:14:04;;;;;;;6.70;2.60;;;8.70;99.90;;;;;;5039862;28;20224;-31
2023/03/04 09:16:31;;;;;;;9.00;2.53;;;8.70;99.90;;;;;;5042001;28;20223;-33
2023/03/04 09:18:59;;;;;;;7.83;3.20;;;8.80;99.90;;;;;;5045387;28;20200;-32
2023/03/04 09:21:29;;;;;;;7.40;2.60;;;8.80;99.90;;;;;;5045667;28;20724;-32
2023/03/04 09:24:01;;;;;;;5.17;2.43;;;8.90;99.90;;;;;;5044679;28;20310;-32
2023/03/04 09:26:29;;;;;;;8.60;3.20;;;9.00;99.90;;;;;;5042241;28;20671;-32
2023/03/04 09:29:01;;;;;;;6.20;3.00;;;9.00;99.90;;;;;;5044988;28;20723;-32
2023/03/04 09:31:30;;;;;;;6.20;2.67;;;8.90;99.90;;;;;;5040612;28;20216;-33
2023/03/04 09:33:59;;;;;;;7.80;2.87;;;9.00;99.90;;;;;;5043301;28;20236;-33
2023/03/04 09:36:30;;;;;;;8.87;2.83;;;9.00;99.90;;;;;;5043533;28;20221;-33
2023/03/04 09:39:03;;;;;;;6.93;3.23;;;9.00;99.90;;;;;;5044164;28;20208;-33
2023/03/04 09:41:55;;;;;;;5.70;2.80;;;9.00;99.90;;;;;;5044031;28;20515;-33
2023/03/04 09:44:24;;;;;;;8.33;3.47;;;9.00;99.90;;;;;;5042665;28;20211;-33
2023/03/04 09:47:00;;;;;;;4.87;2.60;;;9.00;99.90;;;;;;5044132;28;20587;-32
2023/03/04 09:49:28;;;;;;;6.83;3.13;;;9.10;99.90;;;;;;5046727;28;20678;-33
2023/03/04 09:52:08;;;;;;;5.90;2.80;;;9.10;99.90;;;;;;5057961;28;20215;-33
2023/03/04 09:55:06;;;;;;;9.37;2.63;;;9.20;99.90;;;;;;5039075;28;20591;-32
2023/03/04 09:57:47;;;;;;;7.63;2.90;;;9.20;99.90;;;;;;5051133;28;20238;-33
2023/03/04 10:00:41;;;;;;;8.23;2.37;;;9.30;99.90;;;;;;5039107;28;20750;-33
2023/03/04 10:03:18;;;;;;;6.80;2.70;;;9.20;99.90;;;;;;5044730;28;20578;-33
2023/03/04 10:05:49;;;;;;;13.80;2.80;;;9.10;99.90;;;;;;5043968;28;20690;-33
2023/03/04 10:08:34;;;;;;;6.70;2.03;;;9.10;99.90;;;;;;5038946;28;20212;-33
2023/03/04 10:11:08;;;;;;;5.87;2.23;;;9.00;99.90;;;;;;5045846;28;20578;-33
2023/03/04 10:13:48;;;;;;;6.40;2.10;;;9.00;99.90;;;;;;5063140;28;20214;-33
2023/03/04 10:16:21;;;;;;;4.67;1.87;;;9.00;99.90;;;;;;5057690;28;20631;-32
2023/03/04 10:18:54;;;;;;;5.03;1.80;;;9.00;99.90;;;;;;5043368;28;20196;-32
2023/03/04 10:21:42;;;;;;;6.00;1.87;;;9.00;99.90;;;;;;5036872;28;20333;-32
2023/03/04 10:24:18;;;;;;;6.67;1.67;;;9.10;99.90;;;;;;5046280;28;20719;-33
2023/03/04 10:26:54;;;;;;;5.93;1.90;;;9.10;99.90;;;;;;5040560;28;20218;-33
2023/03/04 10:29:24;;;;;;;5.73;2.30;;;9.10;99.90;;;;;;5043739;28;20688;-33
2023/03/04 10:31:55;;;;;;;6.50;1.90;;;9.20;99.90;;;;;;5046793;28;20210;-33
2023/03/04 10:34:25;;;;;;;6.60;1.70;;;9.20;99.90;;;;;;5047050;28;20244;-33
2023/03/04 10:37:06;;;;;;;8.80;2.00;;;9.30;99.90;;;;;;5048473;28;20212;-33
2023/03/04 10:39:40;;;;;;;7.37;1.73;;;9.30;99.90;;;;;;5046584;28;20208;-33
2023/03/04 10:42:15;;;;;;;6.57;2.20;;;9.30;99.90;;;;;;5046721;28;20222;-33
2023/03/04 10:44:55;;;;;;;7.50;2.37;;;9.30;99.90;;;;;;5046272;28;21492;-33
2023/03/04 10:47:24;;;;;;;8.40;2.03;;;9.20;99.90;;;;;;5047985;28;20294;-33
2023/03/04 10:49:59;;;;;;;9.60;3.57;;;9.20;99.90;;;;;;5044200;28;20232;-33
2023/03/04 10:52:29;;;;;;;4.57;2.57;;;9.30;99.90;;;;;;5046920;28;20548;-33
2023/03/04 10:55:20;;;;;;;7.23;2.73;;;9.40;99.90;;;;;;5045735;28;20699;-34
2023/03/04 10:57:52;;;;;;;4.93;2.13;;;9.40;99.90;;;;;;5048598;28;20749;-33
2023/03/04 11:00:31;;;;;;;5.43;2.50;;;9.40;99.90;;;;;;5044217;28;20212;-33
2023/03/04 11:03:21;;;;;;;5.97;2.30;;;9.50;99.90;;;;;;5045899;28;20200;-33
2023/03/04 11:05:52;;;;;;;7.47;2.43;;;9.50;99.90;;;;;;5044272;28;20292;-33
2023/03/04 11:08:22;;;;;;;6.23;2.27;;;9.60;99.90;;;;;;5040344;28;20223;-34
2023/03/04 11:10:51;;;;;;;8.60;2.67;;;9.60;99.90;;;;;;5052494;28;20215;-33
2023/03/04 11:13:25;;;;;;;4.77;2.53;;;9.60;99.90;;;;;;5050028;28;20199;-33
2023/03/04 11:16:00;;;;;;;6.90;2.90;;;9.70;99.90;;;;;;5067186;28;20780;-33
2023/03/04 11:18:42;;;;;;;6.67;2.67;;;9.80;99.90;;;;;;5068196;28;20223;-33
2023/03/04 11:21:17;;;;;;;6.90;2.57;;;9.80;99.90;;;;;;5048629;28;20202;-33
2023/03/04 11:24:00;;;;;;;7.60;3.37;;;9.90;99.90;;;;;;5044403;28;20619;-33
2023/03/04 11:26:40;;;;;;;8.67;2.70;;;10.00;99.90;;;;;;5045671;28;20212;-34
2023/03/04 11:29:16;;;;;;;6.17;2.83;;;10.10;99.90;;;;;;5056818;28;20225;-32
2023/03/04 11:31:52;;;;;;;8.17;3.10;;;10.20;99.90;;;;;;5028051;28;20196;-32
2023/03/04 11:34:42;;;;;;;6.50;3.20;;;10.20;99.90;;;;;;5027861;28;20256;-31
2023/03/04 11:37:35;;;;;;;6.00;2.93;;;10.30;99.90;;;;;;5029886;28;20312;-31
2023/03/04 11:40:04;;;;;;;5.23;2.80;;;10.40;99.90;;;;;;5034632;28;20212;-32
2023/03/04 11:42:34;;;;;;;6.23;2.90;;;10.40;99.90;;;;;;5043713;28;20215;-31
2023/03/04 11:45:11;;;;;;;9.30;3.10;;;10.40;99.90;;;;;;5045470;28;20303;-31
2023/03/04 11:48:18;;;;;;;4.27;2.90;;;10.60;99.90;;;;;;5047578;28;20200;-32
2023/03/04 11:51:09;;;;;;;13.40;3.10;;;10.60;99.90;;;;;;5044718;28;20752;-31
2023/03/04 11:53:57;;;;;;;7.97;3.10;;;10.60;99.90;;;;;;5045359;28;20250;-31
2023/03/04 11:56:35;;;;;;;5.13;2.30;;;10.60;99.90;;;;;;5045945;28;20698;-32
2023/03/04 11:59:35;;;;;;;5.40;2.60;;;10.60;99.90;;;;;;5036609;28;20196;-31
2023/03/04 12:02:22;;;;;;;3.33;1.80;;;10.70;99.90;;;;;;5041244;28;20214;-32
2023/03/04 12:05:22;;;;;;;5.03;2.63;;;10.80;99.90;;;;;;5033250;28;20703;-31
2023/03/04 12:07:57;;;;;;;3.90;2.00;;;10.90;99.90;;;;;;5039537;28;20204;-31
2023/03/04 12:10:38;;;;;;;5.83;2.30;;;11.00;99.90;;;;;;5033901;28;20283;-32
2023/03/04 12:13:24;;;;;;;4.40;1.97;;;11.10;99.90;;;;;;5049422;28;20244;-31
2023/03/04 12:16:16;;;;;;;4.00;2.37;;;11.10;99.90;;;;;;5044400;28;20319;-32
2023/03/04 12:18:49;;;;;;;3.93;2.03;;;11.10;99.90;;;;;;5037834;28;20647;-31
2023/03/04 12:21:32;;;;;;;4.93;2.10;;;11.10;99.90;;;;;;5033162;28;20220;-31
2023/03/04 12:24:19;;;;;;;5.63;1.83;;;11.00;99.90;;;;;;5042627;28;20212;-31
2023/03/04 12:27:11;;;;;;;2.23;1.60;;;10.80;99.90;;;;;;5027214;28;20193;-32
2023/03/04 12:30:04;;;;;;;5.27;2.17;;;10.80;99.90;;;;;;5041725;28;20327;-31
2023/03/04 12:32:49;;;;;;;3.70;1.47;;;10.70;99.90;;;;;;5039432;28;20200;-31
2023/03/04 12:35:38;;;;;;;3.93;1.50;;;10.70;99.90;;;;;;5044765;28;20208;-31
2023/03/04 12:38:38;;;;;;;4.37;2.10;;;10.70;99.90;;;;;;5044214;28;20216;-32
2023/03/04 12:41:35;;;;;;;8.73;2.80;;;10.70;99.90;;;;;;5033768;28;20249;-31
2023/03/04 12:44:03;;;;;;;8.70;3.10;;;10.70;99.90;;;;;;5044966;28;20326;-30
2023/03/04 12:46:55;;;;;;;8.40;3.30;;;10.80;99.90;;;;;;5045926;28;20211;-31
2023/03/04 12:49:34;;;;;;;8.17;3.47;;;10.80;99.90;;;;;;5044170;28;20484;-31
2023/03/04 12:52:29;;;;;;;7.20;3.33;;;10.80;99.90;;;;;;5043733;28;20804;-31
2023/03/04 12:55:03;;;;;;;10.03;3.50;;;10.80;99.90;;;;;;5041584;28;20231;-32
2023/03/04 12:57:36;;;;;;;5.80;2.60;;;10.80;99.90;;;;;;5059427;28;20741;-31
2023/03/04 13:00:11;;;;;;;8.00;3.57;;;10.80;99.90;;;;;;5041135;28;20601;-35
2023/03/04 13:02:47;;;;;;;5.90;2.93;;;10.80;99.90;;;;;;5032932;28;20226;-32
2023/03/04 13:05:18;;;;;;;7.30;3.20;;;10.80;99.90;;;;;;5030563;28;20258;-32
2023/03/04 13:07:46;;;;;;;8.13;3.60;;;10.90;99.90;;;;;;5067909;28;20231;-32
2023/03/04 13:10:16;;;;;;;6.97;3.97;;;10.90;99.90;;;;;;5059482;28;20214;-31
2023/03/04 13:12:51;;;;;;;8.90;4.30;;;10.90;99.90;;;;;;5044600;28;20231;-32
2023/03/04 13:15:38;;;;;;;6.87;3.30;;;10.90;99.90;;;;;;5045736;28;20235;-32
2023/03/04 13:18:34;;;;;;;6.97;3.03;;;10.90;99.90;;;;;;5058039;28;20292;-31